Capt Mark — WDF5784 — position and weather

sailwx.info

Track history (hours):
 
Tides and Currents Weather Stations Pressure Air Temp Water Temp Dewpoint Dewpoint Depression Visibility Wind Speed Wind Dir Waves Ship Positions

Capt Mark

Owner: CENTRAL BOAT RENTALS, BERWICK, LA. More information available from US FCC via Universal Licensing System and Coast Guard Vessel Documentation Center.

Last reported at 2017-Oct-14 12:04 UTC. Time now 2017-Oct-17 05:44 UTC.
Position N 29°38' W 090°21'.

Length 15 m; draft 2.5 m.

Type: Tug. MMSI: 367467170.

Date/timePositionNaut miles runAvg speedWind from/ knotsBaromVisibWave heightAir tempDewpointWater temp
2017-Oct-14 12:04N 29°38' W 090°21'1 6.4
2017-Oct-14 11:59N 29°37' W 090°21'3 5.9
2017-Oct-14 11:30N 29°35' W 090°23'2 4.8
2017-Oct-14 10:59N 29°33' W 090°25'0 0.4
2017-Oct-14 10:28N 29°33' W 090°25'3 5.4
2017-Oct-14 09:58N 29°33' W 090°28'3 6.4
2017-Oct-14 09:30N 29°34' W 090°32'3 6.4
2017-Oct-14 08:58N 29°35' W 090°35'2 4.7
2017-Oct-14 08:31N 29°35' W 090°38'0 0.0
2017-Oct-14 08:01N 29°35' W 090°38'2 4.1
2017-Oct-14 07:30N 29°36' W 090°40'2 4.9
2017-Oct-14 07:01N 29°36' W 090°43'3 5.5
2017-Oct-14 06:31N 29°34' W 090°44'3 5.9
2017-Oct-14 06:01N 29°32' W 090°47'4 6.7
2017-Oct-14 05:29N 29°32' W 090°51'3 6.4
2017-Oct-14 05:00N 29°33' W 090°55'3 6.3
2017-Oct-14 04:30N 29°35' W 090°58'  
2017-Oct-08 20:29N 29°50' W 091°60'3 5.9
2017-Oct-08 20:00N 29°49' W 092°03'2 5.0
2017-Oct-08 19:30N 29°48' W 092°06'3 5.1
2017-Oct-08 19:00N 29°47' W 092°08'3 5.6
2017-Oct-08 18:31N 29°47' W 092°12'2 3.3
2017-Oct-08 18:00N 29°48' W 092°13'3 5.7
2017-Oct-08 17:30N 29°49' W 092°16'40 4.9
2017-Oct-08 09:22N 29°56' W 093°02'2 5.1
2017-Oct-08 09:00N 29°56' W 093°04'3 5.1
2017-Oct-08 08:31N 29°56' W 093°07'3 5.0
2017-Oct-08 08:00N 29°56' W 093°10'3 5.2
2017-Oct-08 07:30N 29°58' W 093°12'3 5.1
2017-Oct-08 07:00N 30°00' W 093°14'2 3.3
2017-Oct-08 06:30N 30°02' W 093°15'2 3.2
2017-Oct-08 06:00N 30°03' W 093°16'2 4.5
2017-Oct-08 05:31N 30°05' W 093°17'1 1.8
2017-Oct-08 05:01N 30°05' W 093°18'1 1.6
2017-Oct-08 04:31N 30°06' W 093°18'0 0.0
2017-Oct-08 04:01N 30°06' W 093°18'0 0.0
2017-Oct-08 03:30N 30°06' W 093°18'0 0.0
2017-Oct-08 03:01N 30°06' W 093°18'0 0.0
2017-Oct-08 02:31N 30°06' W 093°18'0 0.0
2017-Oct-08 02:00N 30°06' W 093°18'0 0.0
2017-Oct-08 01:30N 30°06' W 093°18'0 0.0
2017-Oct-08 01:01N 30°06' W 093°18'0 0.0
2017-Oct-08 00:30N 30°06' W 093°18'0 0.0
2017-Oct-08 00:01N 30°06' W 093°18'0 0.0
2017-Oct-07 23:31N 30°06' W 093°18'1 1.3
2017-Oct-07 23:00N 30°06' W 093°19'2 3.4
2017-Oct-07 22:31N 30°07' W 093°20'3 5.4
2017-Oct-07 22:01N 30°10' W 093°19'3 5.0
2017-Oct-07 21:30N 30°12' W 093°17'1 1.9
2017-Oct-07 21:01N 30°13' W 093°18'0 0.1
2017-Oct-07 20:31N 30°13' W 093°18'0 0.0
2017-Oct-07 20:00N 30°13' W 093°18'0 0.0
2017-Oct-07 19:31N 30°13' W 093°18'0 0.0
2017-Oct-07 19:01N 30°13' W 093°18'0 0.0
2017-Oct-07 18:31N 30°13' W 093°18'0 0.0
2017-Oct-07 18:00N 30°13' W 093°18'0 0.0
2017-Oct-07 17:31N 30°13' W 093°18'0 0.0
2017-Oct-07 17:01N 30°13' W 093°18'0 0.0
2017-Oct-07 16:30N 30°13' W 093°18'0 0.9
2017-Oct-07 16:00N 30°12' W 093°18'2 4.9
2017-Oct-07 15:31N 30°10' W 093°19'3 6.3
2017-Oct-07 15:01N 30°07' W 093°20'3 5.6
2017-Oct-07 14:30N 30°04' W 093°20'3 5.4
2017-Oct-07 14:00N 30°04' W 093°23'3 6.9
2017-Oct-07 13:30N 30°04' W 093°27'3 6.6
2017-Oct-07 13:00N 30°04' W 093°31'79 1.7
2017-Oct-05 14:17N 29°34' W 094°56'2 6.6
2017-Oct-05 14:00N 29°36' W 094°57'3 6.5
2017-Oct-05 13:30N 29°39' W 094°58'2 4.9
2017-Oct-05 13:00N 29°41' W 094°58'2 4.2
2017-Oct-05 12:27N 29°41' W 094°56'2 0.2
2017-Oct-05 01:27N 29°43' W 094°57'2 3.6
2017-Oct-05 00:58N 29°42' W 094°55'3 4.1
2017-Oct-05 00:16N 29°41' W 094°58'3 6.1
2017-Oct-04 23:51N 29°42' W 095°01'7 1.9
2017-Oct-04 20:28N 29°44' W 095°08'  
Track history (hours):
 
Tides and Currents Weather Stations Pressure Air Temp Water Temp Dewpoint Dewpoint Depression Visibility Wind Speed Wind Dir Waves Ship Positions

Capt Mark

Owner: CENTRAL BOAT RENTALS, BERWICK, LA. More information available from US FCC via Universal Licensing System and Coast Guard Vessel Documentation Center.

Last reported at 2017-Oct-14 12:04 UTC. Time now 2017-Oct-17 05:44 UTC.
Position N 29°38' W 090°21'.

Length 15 m; draft 2.5 m.

Type: Tug. MMSI: 367467170.

Date/timePositionNaut miles runAvg speedWind from/ knotsBaromVisibWave heightAir tempDewpointWater temp
2017-Oct-14 12:04N 29°38' W 090°21'1 6.4
2017-Oct-14 11:59N 29°37' W 090°21'3 5.9
2017-Oct-14 11:30N 29°35' W 090°23'2 4.8
2017-Oct-14 10:59N 29°33' W 090°25'0 0.4
2017-Oct-14 10:28N 29°33' W 090°25'3 5.4
2017-Oct-14 09:58N 29°33' W 090°28'3 6.4
2017-Oct-14 09:30N 29°34' W 090°32'3 6.4
2017-Oct-14 08:58N 29°35' W 090°35'2 4.7
2017-Oct-14 08:31N 29°35' W 090°38'0 0.0
2017-Oct-14 08:01N 29°35' W 090°38'2 4.1
2017-Oct-14 07:30N 29°36' W 090°40'2 4.9
2017-Oct-14 07:01N 29°36' W 090°43'3 5.5
2017-Oct-14 06:31N 29°34' W 090°44'3 5.9
2017-Oct-14 06:01N 29°32' W 090°47'4 6.7
2017-Oct-14 05:29N 29°32' W 090°51'3 6.4
2017-Oct-14 05:00N 29°33' W 090°55'3 6.3
2017-Oct-14 04:30N 29°35' W 090°58'  
2017-Oct-08 20:29N 29°50' W 091°60'3 5.9
2017-Oct-08 20:00N 29°49' W 092°03'2 5.0
2017-Oct-08 19:30N 29°48' W 092°06'3 5.1
2017-Oct-08 19:00N 29°47' W 092°08'3 5.6
2017-Oct-08 18:31N 29°47' W 092°12'2 3.3
2017-Oct-08 18:00N 29°48' W 092°13'3 5.7
2017-Oct-08 17:30N 29°49' W 092°16'40 4.9
2017-Oct-08 09:22N 29°56' W 093°02'2 5.1
2017-Oct-08 09:00N 29°56' W 093°04'3 5.1
2017-Oct-08 08:31N 29°56' W 093°07'3 5.0
2017-Oct-08 08:00N 29°56' W 093°10'3 5.2
2017-Oct-08 07:30N 29°58' W 093°12'3 5.1
2017-Oct-08 07:00N 30°00' W 093°14'2 3.3
2017-Oct-08 06:30N 30°02' W 093°15'2 3.2
2017-Oct-08 06:00N 30°03' W 093°16'2 4.5
2017-Oct-08 05:31N 30°05' W 093°17'1 1.8
2017-Oct-08 05:01N 30°05' W 093°18'1 1.6
2017-Oct-08 04:31N 30°06' W 093°18'0 0.0
2017-Oct-08 04:01N 30°06' W 093°18'0 0.0
2017-Oct-08 03:30N 30°06' W 093°18'0 0.0
2017-Oct-08 03:01N 30°06' W 093°18'0 0.0
2017-Oct-08 02:31N 30°06' W 093°18'0 0.0
2017-Oct-08 02:00N 30°06' W 093°18'0 0.0
2017-Oct-08 01:30N 30°06' W 093°18'0 0.0
2017-Oct-08 01:01N 30°06' W 093°18'0 0.0
2017-Oct-08 00:30N 30°06' W 093°18'0 0.0
2017-Oct-08 00:01N 30°06' W 093°18'0 0.0
2017-Oct-07 23:31N 30°06' W 093°18'1 1.3
2017-Oct-07 23:00N 30°06' W 093°19'2 3.4
2017-Oct-07 22:31N 30°07' W 093°20'3 5.4
2017-Oct-07 22:01N 30°10' W 093°19'3 5.0
2017-Oct-07 21:30N 30°12' W 093°17'1 1.9
2017-Oct-07 21:01N 30°13' W 093°18'0 0.1
2017-Oct-07 20:31N 30°13' W 093°18'0 0.0
2017-Oct-07 20:00N 30°13' W 093°18'0 0.0
2017-Oct-07 19:31N 30°13' W 093°18'0 0.0
2017-Oct-07 19:01N 30°13' W 093°18'0 0.0
2017-Oct-07 18:31N 30°13' W 093°18'0 0.0
2017-Oct-07 18:00N 30°13' W 093°18'0 0.0
2017-Oct-07 17:31N 30°13' W 093°18'0 0.0
2017-Oct-07 17:01N 30°13' W 093°18'0 0.0
2017-Oct-07 16:30N 30°13' W 093°18'0 0.9
2017-Oct-07 16:00N 30°12' W 093°18'2 4.9
2017-Oct-07 15:31N 30°10' W 093°19'3 6.3
2017-Oct-07 15:01N 30°07' W 093°20'3 5.6
2017-Oct-07 14:30N 30°04' W 093°20'3 5.4
2017-Oct-07 14:00N 30°04' W 093°23'3 6.9
2017-Oct-07 13:30N 30°04' W 093°27'3 6.6
2017-Oct-07 13:00N 30°04' W 093°31'79 1.7
2017-Oct-05 14:17N 29°34' W 094°56'2 6.6
2017-Oct-05 14:00N 29°36' W 094°57'3 6.5
2017-Oct-05 13:30N 29°39' W 094°58'2 4.9
2017-Oct-05 13:00N 29°41' W 094°58'2 4.2
2017-Oct-05 12:27N 29°41' W 094°56'2 0.2
2017-Oct-05 01:27N 29°43' W 094°57'2 3.6
2017-Oct-05 00:58N 29°42' W 094°55'3 4.1
2017-Oct-05 00:16N 29°41' W 094°58'3 6.1
2017-Oct-04 23:51N 29°42' W 095°01'7 1.9
2017-Oct-04 20:28N 29°44' W 095°08'  

Dump ship's entire track history